Decoded Metar for EPRZ (RZESZOW in POLAND) (IATA:RZE) | Meteo·Mobile Aviation Weather
aviador You're here:

EPRZ Decoded Metar

RZESZOW in POLAND
Report Time2019-04-23 08:00:00
UTC Time2019-04-23 08:07:34
Flight Rules vfr VFR
Wind100° at 17 kt
W.Decomp.*RWY 09: 16.9 kt HW 1.5 kt RCW
Visibility9999 m
Phenomena:N/A
Clouds:N/A
Expected CloudBase > 3,600 ft AGL from Temp-Dew spread
CeilingNone
Temp10°C (ISA -4)
Dew Point01°C (54% RH)
AAT2.1°C
QNH1021 hPa
Density Alt46 ft
Elevation663 ft
Report Wrong Elevation
Raw Report
METAR EPRZ 230800Z 10017KT CAVOK 10/01 Q1021=

Extra information for EPRZ:More info

Metar Taf Metar & Taf Last 4 Metars F.Rules Stats Wind Profile Meteogram Temp Stats Airport Information Weather charts Add Link Nearby VenuesMetar ALERT Operation Metar Decoded Social comments